createdAt,value
2019-05-11T00:00:32.111Z,12.97
2019-05-11T00:03:38.516Z,12.90
2019-05-11T00:06:45.140Z,12.53
2019-05-11T00:09:57.997Z,13.43
2019-05-11T00:13:02.763Z,13.23
2019-05-11T00:16:09.054Z,13.67
2019-05-11T00:19:15.511Z,13.75
2019-05-11T00:22:21.885Z,13.17
2019-05-11T00:25:28.365Z,13.07
2019-05-11T00:28:35.010Z,12.83
2019-05-11T00:31:41.762Z,13.15
2019-05-11T00:34:48.065Z,12.63
2019-05-11T00:37:54.518Z,11.77
2019-05-11T00:41:00.814Z,11.70
2019-05-11T00:44:07.290Z,11.33
2019-05-11T00:47:13.740Z,11.07
2019-05-11T00:50:20.774Z,11.27
2019-05-11T00:53:27.423Z,10.87
2019-05-11T00:56:33.947Z,11.13
2019-05-11T00:59:40.242Z,10.13
2019-05-11T01:02:46.697Z,10.93
2019-05-11T01:05:53.054Z,10.87
2019-05-11T01:08:59.666Z,11.53
2019-05-11T01:12:06.035Z,10.83
2019-05-11T01:15:12.573Z,11.50
2019-05-11T01:18:18.983Z,11.47
2019-05-11T01:21:25.338Z,9.70
2019-05-11T01:24:31.636Z,10.40
2019-05-11T01:27:38.366Z,10.20
2019-05-11T01:30:45.083Z,9.60
2019-05-11T01:33:51.436Z,8.73
2019-05-11T01:36:57.740Z,9.03
2019-05-11T01:40:04.290Z,9.57
2019-05-11T01:43:10.636Z,9.70
2019-05-11T01:46:17.389Z,10.47
2019-05-11T01:49:23.758Z,9.23
2019-05-11T01:52:30.199Z,9.17
2019-05-11T01:55:36.764Z,8.77
2019-05-11T01:58:43.177Z,8.83
2019-05-11T02:01:49.647Z,8.53
2019-05-11T02:05:15.159Z,9.57
2019-05-11T02:08:21.526Z,8.33
2019-05-11T02:11:27.794Z,8.33
2019-05-11T02:14:34.163Z,7.80
2019-05-11T02:17:40.689Z,7.43
2019-05-11T02:20:47.203Z,7.87
2019-05-11T02:23:53.698Z,7.83
2019-05-11T02:26:59.975Z,7.23
2019-05-11T02:30:07.451Z,7.17
2019-05-11T02:33:14.035Z,7.20
2019-05-11T02:36:20.288Z,7.60
2019-05-11T02:39:26.758Z,6.87
2019-05-11T02:42:33.236Z,7.90
2019-05-11T02:45:41.320Z,7.87
2019-05-11T02:48:47.896Z,8.03
2019-05-11T02:51:54.156Z,7.63
2019-05-11T02:55:01.244Z,7.13
2019-05-11T02:58:08.149Z,7.33
2019-05-11T03:01:14.544Z,8.53
2019-05-11T03:04:20.876Z,7.83
2019-05-11T03:07:28.267Z,7.97
2019-05-11T03:10:34.602Z,8.00
2019-05-11T03:13:41.491Z,8.30
2019-05-11T03:16:51.017Z,7.45
2019-05-11T03:19:57.504Z,7.23
2019-05-11T03:23:04.930Z,8.40
2019-05-11T03:26:11.496Z,8.43
2019-05-11T03:29:17.926Z,8.40
2019-05-11T03:32:24.446Z,8.10
2019-05-11T03:35:31.007Z,8.23
2019-05-11T03:38:37.486Z,8.00
2019-05-11T03:41:43.868Z,8.05
2019-05-11T03:44:50.291Z,8.17
2019-05-11T03:47:56.744Z,7.33
2019-05-11T03:51:03.145Z,7.63
2019-05-11T03:54:09.516Z,7.80
2019-05-11T03:57:15.968Z,7.30
2019-05-11T04:00:22.596Z,7.27
2019-05-11T04:03:28.935Z,7.23
2019-05-11T04:06:35.395Z,6.73
2019-05-11T04:09:41.857Z,6.97
2019-05-11T04:12:48.115Z,6.83
2019-05-11T04:15:54.525Z,6.73
2019-05-11T04:19:00.919Z,7.90
2019-05-11T04:22:07.211Z,6.53
2019-05-11T04:25:13.553Z,6.30
2019-05-11T04:28:19.943Z,6.67
2019-05-11T04:31:26.292Z,6.50
2019-05-11T04:34:32.884Z,6.60
2019-05-11T04:37:40.043Z,6.60
2019-05-11T04:40:46.534Z,6.30
2019-05-11T04:43:52.885Z,6.10
2019-05-11T04:46:59.747Z,7.77
2019-05-11T04:50:06.552Z,7.67
2019-05-11T04:53:13.075Z,6.53
2019-05-11T04:56:19.474Z,7.27
2019-05-11T04:59:25.951Z,7.70
2019-05-11T05:02:32.551Z,7.43
2019-05-11T05:05:38.842Z,7.70
2019-05-11T05:08:47.251Z,7.50
2019-05-11T05:11:54.003Z,7.90
2019-05-11T05:15:00.329Z,7.33
2019-05-11T05:18:06.801Z,7.43
2019-05-11T05:21:13.145Z,7.70
2019-05-11T05:24:19.617Z,7.12
2019-05-11T05:27:25.888Z,6.70
2019-05-11T05:30:32.473Z,7.10
2019-05-11T05:33:38.863Z,7.17
2019-05-11T05:36:48.323Z,8.10
2019-05-11T05:39:56.000Z,7.30
2019-05-11T05:43:02.339Z,7.77
2019-05-11T05:46:08.847Z,7.57
2019-05-11T05:49:15.379Z,7.40
2019-05-11T05:52:21.758Z,7.57
2019-05-11T05:55:28.218Z,7.33
2019-05-11T05:58:34.677Z,7.53
2019-05-11T06:01:41.202Z,6.60
2019-05-11T06:04:47.998Z,6.30
2019-05-11T06:07:57.707Z,7.40
2019-05-11T06:11:04.116Z,6.90
2019-05-11T06:14:11.223Z,6.45
2019-05-11T06:17:17.653Z,6.78
2019-05-11T06:20:24.024Z,6.20
2019-05-11T06:23:30.397Z,6.30
2019-05-11T06:26:37.112Z,6.28
2019-05-11T06:29:43.474Z,6.70
2019-05-11T06:32:49.920Z,5.67
2019-05-11T06:35:56.410Z,6.33
2019-05-11T06:39:04.210Z,5.60
2019-05-11T06:42:12.229Z,5.80
2019-05-11T06:45:20.416Z,5.90
2019-05-11T06:48:26.812Z,5.67
2019-05-11T06:51:33.260Z,4.93
2019-05-11T06:54:39.575Z,5.10
2019-05-11T06:57:46.071Z,5.10
2019-05-11T07:00:52.326Z,5.10
2019-05-11T07:03:59.122Z,4.93
2019-05-11T07:07:05.670Z,5.13
2019-05-11T07:10:12.156Z,4.67
2019-05-11T07:13:18.493Z,4.70
2019-05-11T07:16:24.806Z,4.77
2019-05-11T07:19:31.085Z,4.70
2019-05-11T07:22:37.765Z,4.43
2019-05-11T07:25:44.223Z,4.60
2019-05-11T07:28:51.879Z,4.73
2019-05-11T07:32:05.567Z,4.63
2019-05-11T07:35:08.438Z,4.00
2019-05-11T07:38:14.271Z,4.30
2019-05-11T07:41:20.956Z,4.20
2019-05-11T07:44:35.879Z,4.27
2019-05-11T07:47:37.900Z,4.20
2019-05-11T07:50:43.862Z,4.07
2019-05-11T07:53:50.375Z,4.10
2019-05-11T07:56:58.394Z,4.00
2019-05-11T08:00:05.282Z,4.07
2019-05-11T08:03:12.584Z,4.00
2019-05-11T08:06:18.992Z,3.73
2019-05-11T08:09:27.630Z,4.20
2019-05-11T08:12:33.471Z,3.50
2019-05-11T08:15:39.799Z,3.67
2019-05-11T08:18:48.123Z,3.40
2019-05-11T08:21:54.433Z,2.97
2019-05-11T08:25:00.773Z,3.00
2019-05-11T08:28:11.796Z,2.97
2019-05-11T08:31:15.192Z,2.87
2019-05-11T08:34:21.552Z,2.90
2019-05-11T08:37:28.502Z,2.90
2019-05-11T08:40:34.896Z,2.70
2019-05-11T08:43:41.354Z,2.23
2019-05-11T08:46:48.199Z,2.67
2019-05-11T08:49:54.526Z,2.70
2019-05-11T08:53:01.000Z,2.60
2019-05-11T08:56:11.085Z,2.50
2019-05-11T08:59:15.711Z,2.30
2019-05-11T09:02:22.195Z,2.17
2019-05-11T09:05:28.762Z,2.20
2019-05-11T09:08:35.380Z,2.40
2019-05-11T09:11:41.841Z,2.45
2019-05-11T09:14:48.578Z,2.40
2019-05-11T09:17:55.083Z,2.60
2019-05-11T09:21:01.764Z,2.47
2019-05-11T09:24:08.628Z,2.08
2019-05-11T09:27:15.098Z,2.67
2019-05-11T09:30:21.525Z,2.20
2019-05-11T09:33:28.396Z,2.52
2019-05-11T09:36:34.980Z,1.95
2019-05-11T09:39:41.474Z,2.30
2019-05-11T09:42:48.059Z,2.40
2019-05-11T09:45:54.796Z,2.50
2019-05-11T09:49:01.418Z,2.23
2019-05-11T09:52:08.057Z,2.10
2019-05-11T09:55:14.447Z,2.10
2019-05-11T09:58:21.142Z,2.25
2019-05-11T10:01:29.614Z,2.20
2019-05-11T10:04:37.914Z,1.80
2019-05-11T10:07:44.050Z,2.10
2019-05-11T10:10:50.587Z,2.07
2019-05-11T10:13:57.784Z,2.00
2019-05-11T10:17:04.452Z,1.87
2019-05-11T10:20:11.287Z,2.00
2019-05-11T10:23:18.698Z,1.87
2019-05-11T10:26:25.199Z,1.90
2019-05-11T10:29:33.896Z,2.20
2019-05-11T10:32:40.919Z,2.15
2019-05-11T10:35:48.349Z,2.15
2019-05-11T10:38:54.968Z,2.00
2019-05-11T10:42:01.721Z,2.22
2019-05-11T10:45:09.201Z,1.98
2019-05-11T10:48:17.739Z,2.02
2019-05-11T10:51:24.391Z,2.10
2019-05-11T10:54:30.897Z,1.87
2019-05-11T10:57:38.629Z,2.10
2019-05-11T11:00:47.930Z,1.90
2019-05-11T11:03:53.711Z,3.12
2019-05-11T11:07:00.269Z,1.98
2019-05-11T11:10:08.907Z,2.17
2019-05-11T11:13:15.300Z,1.80
2019-05-11T11:16:35.798Z,1.92
2019-05-11T11:19:30.320Z,2.10
2019-05-11T11:22:41.313Z,1.70
2019-05-11T11:25:45.001Z,1.80
2019-05-11T11:28:51.770Z,1.75
2019-05-11T11:31:58.814Z,2.00
2019-05-11T11:35:05.472Z,1.87
2019-05-11T11:38:11.986Z,2.25
2019-05-11T11:41:18.880Z,1.87
2019-05-11T11:44:25.371Z,1.95
2019-05-11T11:47:31.723Z,1.90
2019-05-11T11:50:38.251Z,2.40
2019-05-11T11:53:44.729Z,1.82
2019-05-11T11:56:51.260Z,1.90
2019-05-11T11:59:58.705Z,2.62
2019-05-11T12:03:07.859Z,3.00
2019-05-11T12:06:13.780Z,3.55
2019-05-11T12:09:20.359Z,3.20
2019-05-11T12:12:27.881Z,3.47
2019-05-11T12:15:35.662Z,2.72
2019-05-11T12:18:42.306Z,2.75
2019-05-11T12:21:49.693Z,3.00
2019-05-11T12:24:58.751Z,2.90
2019-05-11T12:28:04.507Z,3.00
2019-05-11T12:31:10.880Z,3.20
2019-05-11T12:34:17.879Z,3.30
2019-05-11T12:37:24.502Z,3.50
2019-05-11T12:40:30.941Z,3.30
2019-05-11T12:43:38.233Z,1.60
2019-05-11T12:46:44.746Z,1.30
2019-05-11T12:49:51.088Z,1.40
2019-05-11T12:52:58.835Z,1.57
2019-05-11T12:56:07.970Z,1.67
2019-05-11T12:59:13.683Z,1.50
2019-05-11T13:02:20.346Z,1.20
2019-05-11T13:05:28.510Z,1.53
2019-05-11T13:08:35.177Z,1.57
2019-05-11T13:11:41.530Z,1.60
2019-05-11T13:14:48.868Z,1.57
2019-05-11T13:17:57.945Z,1.82
2019-05-11T13:21:03.832Z,1.62
2019-05-11T13:24:10.216Z,2.03
2019-05-11T13:27:17.851Z,1.73
2019-05-11T13:30:24.625Z,2.40
2019-05-11T13:33:31.008Z,1.90
2019-05-11T13:36:38.201Z,2.60
2019-05-11T13:39:44.732Z,2.03
2019-05-11T13:42:51.369Z,1.90
2019-05-11T13:45:58.438Z,2.20
2019-05-11T13:49:08.387Z,1.90
2019-05-11T13:52:14.179Z,2.00
2019-05-11T13:55:20.656Z,2.17
2019-05-11T13:58:27.772Z,2.30
2019-05-11T14:01:34.339Z,2.13
2019-05-11T14:04:40.796Z,2.70
2019-05-11T14:07:48.271Z,2.43
2019-05-11T14:10:57.952Z,1.97
2019-05-11T14:14:04.246Z,2.10
2019-05-11T14:17:10.688Z,2.50
2019-05-11T14:20:18.940Z,2.20
2019-05-11T14:23:28.357Z,2.53
2019-05-11T14:26:33.810Z,2.73
2019-05-11T14:29:40.095Z,2.50
2019-05-11T14:32:47.810Z,2.20
2019-05-11T14:35:54.436Z,2.90
2019-05-11T14:39:00.757Z,2.33
2019-05-11T14:42:07.685Z,2.70
2019-05-11T14:45:14.352Z,2.30
2019-05-11T14:48:26.253Z,3.30
2019-05-11T14:51:28.816Z,2.50
2019-05-11T14:54:35.223Z,2.97
2019-05-11T14:57:41.782Z,3.50
2019-05-11T15:00:49.561Z,2.57
2019-05-11T15:03:58.723Z,2.40
2019-05-11T15:07:04.487Z,2.53
2019-05-11T15:10:11.213Z,2.63
2019-05-11T15:13:18.563Z,3.23
2019-05-11T15:16:25.143Z,3.47
2019-05-11T15:19:31.566Z,3.20
2019-05-11T15:22:38.519Z,6.57
2019-05-11T15:25:45.207Z,7.60
2019-05-11T15:28:51.572Z,7.70
2019-05-11T15:31:58.066Z,8.63
2019-05-11T15:35:04.458Z,8.50
2019-05-11T15:38:11.091Z,8.13
2019-05-11T15:41:17.884Z,7.83
2019-05-11T15:44:24.290Z,5.43
2019-05-11T15:47:31.630Z,4.27
2019-05-11T15:50:40.209Z,4.70
2019-05-11T15:53:47.613Z,5.30
2019-05-11T15:56:55.034Z,3.50
2019-05-11T16:00:01.460Z,2.80
2019-05-11T16:03:08.287Z,1.93
2019-05-11T16:06:14.784Z,1.67
2019-05-11T16:09:21.115Z,2.12
2019-05-11T16:12:28.775Z,2.57
2019-05-11T16:15:38.207Z,2.50
2019-05-11T16:18:44.259Z,2.67
2019-05-11T16:21:50.629Z,3.20
2019-05-11T16:24:58.031Z,4.50
2019-05-11T16:28:04.852Z,3.80
2019-05-11T16:31:11.206Z,3.53
2019-05-11T16:34:18.427Z,3.53
2019-05-11T16:37:24.899Z,4.00
2019-05-11T16:40:31.214Z,3.33
2019-05-11T16:43:38.504Z,4.03
2019-05-11T16:46:45.190Z,3.87
2019-05-11T16:49:53.436Z,4.00
2019-05-11T16:53:00.272Z,3.80
2019-05-11T16:56:08.387Z,3.53
2019-05-11T16:59:14.986Z,3.20
2019-05-11T17:02:21.313Z,3.30
2019-05-11T17:05:33.477Z,3.10
2019-05-11T17:08:38.152Z,3.57
2019-05-11T17:11:44.553Z,3.62
2019-05-11T17:15:01.026Z,3.83
2019-05-11T17:18:08.085Z,3.30
2019-05-11T17:21:14.535Z,2.87
2019-05-11T17:24:20.887Z,3.10
2019-05-11T17:27:28.538Z,3.27
2019-05-11T17:30:38.673Z,3.20
2019-05-11T17:33:47.653Z,2.63
2019-05-11T17:36:57.090Z,3.80
2019-05-11T17:40:02.497Z,3.90
2019-05-11T17:43:09.217Z,2.50
2019-05-11T17:46:18.246Z,2.77
2019-05-11T17:49:23.864Z,3.20
2019-05-11T17:52:30.502Z,3.00
2019-05-11T17:55:38.289Z,2.60
2019-05-11T17:58:44.962Z,2.80
2019-05-11T18:01:51.303Z,2.72
2019-05-11T18:04:58.460Z,2.70
2019-05-11T18:08:05.026Z,2.73
2019-05-11T18:11:11.407Z,3.80
2019-05-11T18:14:17.785Z,3.92
2019-05-11T18:17:25.234Z,4.20
2019-05-11T18:20:31.575Z,3.80
2019-05-11T18:23:38.751Z,3.57
2019-05-11T18:26:45.280Z,3.80
2019-05-11T18:29:52.187Z,3.80
2019-05-11T18:32:59.502Z,3.50
2019-05-11T18:36:08.047Z,3.50
2019-05-11T18:39:14.240Z,3.80
2019-05-11T18:42:20.707Z,3.90
2019-05-11T18:45:28.783Z,4.33
2019-05-11T18:48:35.278Z,8.23
2019-05-11T18:51:41.653Z,4.87
2019-05-11T18:54:48.210Z,4.00
2019-05-11T18:57:54.583Z,3.60
2019-05-11T19:01:01.178Z,3.27
2019-05-11T19:04:08.909Z,2.70
2019-05-11T19:07:17.195Z,3.00
2019-05-11T19:10:23.932Z,2.60
2019-05-11T19:13:30.292Z,2.87
2019-05-11T19:16:38.781Z,2.80
2019-05-11T19:19:44.865Z,3.00
2019-05-11T19:22:51.772Z,2.90
2019-05-11T19:25:58.960Z,3.10
2019-05-11T19:29:05.297Z,3.00
2019-05-11T19:32:11.677Z,3.50
2019-05-11T19:35:21.291Z,3.03
2019-05-11T19:38:28.003Z,3.33
2019-05-11T19:41:34.773Z,3.23
2019-05-11T19:44:41.270Z,2.83
2019-05-11T19:47:48.416Z,2.67
2019-05-11T19:51:06.701Z,3.00
2019-05-11T19:54:03.816Z,2.70
2019-05-11T19:57:10.315Z,2.83
2019-05-11T20:00:18.592Z,2.60
2019-05-11T20:03:25.125Z,3.83
2019-05-11T20:06:31.506Z,3.30
2019-05-11T20:09:38.705Z,3.23
2019-05-11T20:12:48.358Z,3.20
2019-05-11T20:15:54.377Z,3.20
2019-05-11T20:19:01.003Z,3.00
2019-05-11T20:22:07.500Z,3.27
2019-05-11T20:25:18.585Z,3.03
2019-05-11T20:28:25.142Z,2.90
2019-05-11T20:31:31.516Z,3.07
2019-05-11T20:34:38.233Z,2.73
2019-05-11T20:37:44.739Z,3.10
2019-05-11T20:40:51.127Z,3.30
2019-05-11T20:43:58.072Z,3.40
2019-05-11T20:47:04.864Z,3.40
2019-05-11T20:50:11.332Z,3.17
2019-05-11T20:53:18.220Z,2.97
2019-05-11T20:56:24.826Z,2.87
2019-05-11T20:59:31.304Z,3.00
2019-05-11T21:02:38.220Z,3.20
2019-05-11T21:05:44.794Z,3.08
2019-05-11T21:08:51.195Z,3.00
2019-05-11T21:11:59.191Z,3.00
2019-05-11T21:15:07.725Z,2.93
2019-05-11T21:18:14.135Z,2.83
2019-05-11T21:21:20.463Z,2.70
2019-05-11T21:24:28.078Z,2.93
2019-05-11T21:27:34.495Z,2.80
2019-05-11T21:30:40.878Z,2.47
2019-05-11T21:33:47.291Z,2.27
2019-05-11T21:36:53.768Z,2.70
2019-05-11T21:40:00.241Z,2.37
2019-05-11T21:43:08.951Z,2.50
2019-05-11T21:46:17.864Z,2.47
2019-05-11T21:49:24.409Z,2.47
2019-05-11T21:52:30.739Z,2.20
2019-05-11T21:55:37.792Z,1.97
2019-05-11T21:58:44.307Z,2.20
2019-05-11T22:01:51.011Z,1.98
2019-05-11T22:04:58.628Z,1.53
2019-05-11T22:08:05.137Z,1.80
2019-05-11T22:11:13.995Z,1.63
2019-05-11T22:14:19.827Z,1.50
2019-05-11T22:17:27.916Z,1.30
2019-05-11T22:20:34.593Z,1.40
2019-05-11T22:23:40.953Z,1.60
2019-05-11T22:26:47.708Z,1.40
2019-05-11T22:29:54.044Z,1.27
2019-05-11T22:33:00.313Z,1.30
2019-05-11T22:36:06.790Z,1.40
2019-05-11T22:39:13.338Z,1.20
2019-05-11T22:42:19.902Z,1.30
2019-05-11T22:45:27.786Z,1.47
2019-05-11T22:48:34.288Z,1.30
2019-05-11T22:51:40.659Z,1.10
2019-05-11T22:54:48.484Z,1.20
2019-05-11T22:57:54.781Z,1.10
2019-05-11T23:01:01.031Z,1.40
2019-05-11T23:04:07.755Z,1.30
2019-05-11T23:07:14.221Z,1.20
2019-05-11T23:10:20.567Z,1.20
2019-05-11T23:13:27.905Z,1.20
2019-05-11T23:16:34.527Z,1.20
2019-05-11T23:19:41.608Z,1.10
2019-05-11T23:22:56.868Z,1.30
2019-05-11T23:25:57.953Z,1.30
2019-05-11T23:29:08.035Z,1.30
2019-05-11T23:32:13.857Z,1.23
2019-05-11T23:35:20.458Z,0.90
2019-05-11T23:38:28.197Z,1.00
2019-05-11T23:41:34.918Z,1.23
2019-05-11T23:44:41.479Z,1.23
2019-05-11T23:47:48.913Z,1.43
2019-05-11T23:50:57.906Z,1.30
2019-05-11T23:54:03.776Z,1.07
2019-05-11T23:57:10.048Z,1.27
